Shishmaref, AK

7:19 AM AKDT on May 29, 2017 (GMT -0800)
New Shishmaref | | Change Station

Elev 10 ft 66.25 °N, 166.09 °W | Updated 3 minutes ago

Overcast
Overcast
28 °F
Feels Like 23 °F
N
5
Wind Variable Wind from WNW

Today
High -- | Low -- °F
--% Chance of Precip.
Yesterday
High -- | Low -- °F
Precip. -- in
Pressure 30.01 in
Visibility 0.2 miles
Clouds Overcast 200 ft
Windchill 23 °F
Dew Point 27 °F
Humidity 93%
Rainfall 0.00 in
Snow Depth Not available.
4:19 AM 1:48 AM
Waxing Crescent, 20% visible
METAR PASH 291516Z AUTO 30004KT M1/4SM OVC002 M02/M03 A3001 RMK AO1 PNO
Pressure 30.01 in
Visibility 0.2 miles
Clouds Overcast 200 ft
Windchill 23 °F
Dew Point 27 °F
Humidity 93%
Rainfall 0.00 in
Snow Depth Not available.
4:19 AM 1:48 AM
Waxing Crescent, 20% visible
METAR PASH 291516Z AUTO 30004KT M1/4SM OVC002 M02/M03 A3001 RMK AO1 PNO

Get Severe Weather Alerts

Thanks for signing up!

Be on the lookout for a verification email in your inbox.

You'll start receiving the daily forecast at 6 AM.

×

10-Day Weather Forecast

Almanac

Astronomy

May. 29, 2017 Rise Set
Actual Time
Civil Twilight
Nautical Twilight
Astronomical Twilight
Moon
Length of Visible Light
Length of Day
Tomorrow will be .
, % of the Moon is Illuminated

Today's Extremes

State Highs State Lows

Community

WunderPhotos

Category 6

Welcome to Category 6. This is the collective home for Weather Underground's featured writeups by Dr. Jeff Masters (right), Bob Henson (left), Chris Burt, and other regular contributors.

Nearby

Air Quality

  Air Quality AQ Index Pollutant
Not available.

Snow Depth

Station Depth Elevation

Earthquake Activity

City Distance Mag. Time & Date
Minimum magnitude displayed is 2.5.

Coastal Water Temperatures

Place Temperature

Stations

Nearby Weather Stations

Station Location Temp. Windchill Dew Point Humidity Wind Precip. Elev Updated Type
                   

Watches & Warnings

There are currently no watches in effect.